Terminal Aerodrome Forecast
Issued by NWS

Home | Current Version | Previous Version | Text Only | Print | Product List | Glossary On
Versions: 1 2 3 4 5 6 7 8 9 10 11 12
449
FTUS44 KBMX 252332
TAFANB
TAF
KANB 252332Z 2600/2624 19004KT P6SM SCT250
     FM261100 10003KT 5SM BR SCT250
     FM261400 19006KT P6SM FEW250=

USA.gov is the U.S. government's official web portal to all federal, state and local government web resources and services.